sensor_id;sensor_type;location;lat;lon;timestamp;pressure;altitude;pressure_sealevel;temperature;humidity
19114;BME280;9689;51.052;13.772;2023-01-09T00:00:18;98932.41;;;5.81;79.49
19114;BME280;9689;51.052;13.772;2023-01-09T00:05:20;98924.72;;;5.78;79.14
19114;BME280;9689;51.052;13.772;2023-01-09T00:10:20;98912.56;;;5.83;79.82
19114;BME280;9689;51.052;13.772;2023-01-09T00:15:22;98903.97;;;5.81;78.95
19114;BME280;9689;51.052;13.772;2023-01-09T00:20:23;98900.50;;;5.84;78.57
19114;BME280;9689;51.052;13.772;2023-01-09T00:25:24;98901.25;;;5.87;78.15
19114;BME280;9689;51.052;13.772;2023-01-09T00:30:26;98891.91;;;5.82;78.96
19114;BME280;9689;51.052;13.772;2023-01-09T00:35:27;98879.09;;;5.77;78.52
19114;BME280;9689;51.052;13.772;2023-01-09T00:40:28;98878.38;;;5.71;79.75
19114;BME280;9689;51.052;13.772;2023-01-09T00:45:30;98873.28;;;5.67;79.32
19114;BME280;9689;51.052;13.772;2023-01-09T00:50:32;98870.75;;;5.64;79.40
19114;BME280;9689;51.052;13.772;2023-01-09T00:55:34;98856.94;;;5.67;78.58
19114;BME280;9689;51.052;13.772;2023-01-09T01:00:37;98861.31;;;5.63;79.46
19114;BME280;9689;51.052;13.772;2023-01-09T01:05:38;98849.28;;;5.62;79.29
19114;BME280;9689;51.052;13.772;2023-01-09T01:10:56;98843.31;;;5.60;79.66
19114;BME280;9689;51.052;13.772;2023-01-09T01:15:58;98830.56;;;5.53;78.53
19114;BME280;9689;51.052;13.772;2023-01-09T01:20:59;98822.09;;;5.46;79.90
19114;BME280;9689;51.052;13.772;2023-01-09T01:26:04;98823.78;;;5.49;79.53
19114;BME280;9689;51.052;13.772;2023-01-09T01:31:06;98809.97;;;5.50;79.31
19114;BME280;9689;51.052;13.772;2023-01-09T01:36:08;98802.41;;;5.42;78.70
19114;BME280;9689;51.052;13.772;2023-01-09T01:41:09;98809.91;;;5.53;78.60
19114;BME280;9689;51.052;13.772;2023-01-09T01:46:11;98795.06;;;5.61;78.90
19114;BME280;9689;51.052;13.772;2023-01-09T01:51:12;98789.81;;;5.64;77.99
19114;BME280;9689;51.052;13.772;2023-01-09T01:56:17;98782.00;;;5.67;77.59
19114;BME280;9689;51.052;13.772;2023-01-09T02:01:21;98763.91;;;5.67;78.26
19114;BME280;9689;51.052;13.772;2023-01-09T02:06:24;98760.31;;;5.73;77.09
19114;BME280;9689;51.052;13.772;2023-01-09T02:11:25;98755.97;;;5.73;77.67
19114;BME280;9689;51.052;13.772;2023-01-09T02:16:37;98744.78;;;5.73;77.70
19114;BME280;9689;51.052;13.772;2023-01-09T02:21:49;98747.38;;;5.74;77.29
19114;BME280;9689;51.052;13.772;2023-01-09T02:27:03;98732.06;;;5.66;77.75
19114;BME280;9689;51.052;13.772;2023-01-09T02:32:17;98728.56;;;5.67;77.93
19114;BME280;9689;51.052;13.772;2023-01-09T02:37:24;98718.84;;;5.77;76.89
19114;BME280;9689;51.052;13.772;2023-01-09T02:42:30;98721.34;;;5.80;77.35
19114;BME280;9689;51.052;13.772;2023-01-09T02:47:39;98710.94;;;5.83;77.26
19114;BME280;9689;51.052;13.772;2023-01-09T02:52:51;98715.13;;;5.87;77.42
19114;BME280;9689;51.052;13.772;2023-01-09T02:58:05;98711.84;;;5.81;78.26
19114;BME280;9689;51.052;13.772;2023-01-09T03:03:15;98725.91;;;5.71;79.54
19114;BME280;9689;51.052;13.772;2023-01-09T03:08:20;98719.22;;;5.62;80.56
19114;BME280;9689;51.052;13.772;2023-01-09T03:13:24;98722.09;;;5.51;80.55
19114;BME280;9689;51.052;13.772;2023-01-09T03:18:27;98709.38;;;5.44;81.85
19114;BME280;9689;51.052;13.772;2023-01-09T03:23:45;98721.47;;;5.42;82.61
19114;BME280;9689;51.052;13.772;2023-01-09T03:28:46;98708.84;;;5.31;83.57
19114;BME280;9689;51.052;13.772;2023-01-09T03:33:48;98702.16;;;5.22;84.48
19114;BME280;9689;51.052;13.772;2023-01-09T03:38:49;98701.53;;;5.13;85.59
19114;BME280;9689;51.052;13.772;2023-01-09T03:43:50;98695.53;;;5.10;85.88
19114;BME280;9689;51.052;13.772;2023-01-09T03:48:52;98685.25;;;5.09;85.95
19114;BME280;9689;51.052;13.772;2023-01-09T03:53:53;98674.91;;;5.09;85.70
19114;BME280;9689;51.052;13.772;2023-01-09T03:58:54;98661.25;;;5.05;85.47
19114;BME280;9689;51.052;13.772;2023-01-09T04:03:56;98656.88;;;5.07;86.40
19114;BME280;9689;51.052;13.772;2023-01-09T04:08:56;98662.06;;;5.07;87.14
19114;BME280;9689;51.052;13.772;2023-01-09T04:13:57;98660.41;;;5.03;87.08
19114;BME280;9689;51.052;13.772;2023-01-09T04:18:59;98651.63;;;5.10;86.91
19114;BME280;9689;51.052;13.772;2023-01-09T04:24:00;98657.06;;;5.00;86.67
19114;BME280;9689;51.052;13.772;2023-01-09T04:29:01;98647.41;;;5.08;87.05
19114;BME280;9689;51.052;13.772;2023-01-09T04:34:03;98638.00;;;5.05;86.65
19114;BME280;9689;51.052;13.772;2023-01-09T04:39:04;98644.03;;;5.06;86.91
19114;BME280;9689;51.052;13.772;2023-01-09T04:44:04;98641.47;;;5.04;86.24
19114;BME280;9689;51.052;13.772;2023-01-09T04:49:06;98638.78;;;5.09;86.84
19114;BME280;9689;51.052;13.772;2023-01-09T04:54:07;98636.09;;;5.14;86.28
19114;BME280;9689;51.052;13.772;2023-01-09T04:59:08;98625.72;;;5.15;86.57
19114;BME280;9689;51.052;13.772;2023-01-09T05:04:10;98624.75;;;5.19;86.21
19114;BME280;9689;51.052;13.772;2023-01-09T05:09:12;98615.25;;;5.21;84.56
19114;BME280;9689;51.052;13.772;2023-01-09T05:14:13;98614.34;;;5.22;85.60
19114;BME280;9689;51.052;13.772;2023-01-09T05:19:15;98617.03;;;5.18;84.94
19114;BME280;9689;51.052;13.772;2023-01-09T05:24:15;98620.59;;;5.14;84.80
19114;BME280;9689;51.052;13.772;2023-01-09T05:29:16;98622.16;;;5.19;85.33
19114;BME280;9689;51.052;13.772;2023-01-09T05:34:18;98609.34;;;5.16;85.23
19114;BME280;9689;51.052;13.772;2023-01-09T05:39:19;98607.41;;;5.24;85.01
19114;BME280;9689;51.052;13.772;2023-01-09T05:44:20;98599.72;;;5.23;83.98
19114;BME280;9689;51.052;13.772;2023-01-09T05:49:22;98603.44;;;5.11;84.16
19114;BME280;9689;51.052;13.772;2023-01-09T05:54:23;98614.25;;;4.91;85.19
19114;BME280;9689;51.052;13.772;2023-01-09T05:59:23;98613.50;;;4.86;85.25
19114;BME280;9689;51.052;13.772;2023-01-09T06:04:26;98608.50;;;4.80;85.81
19114;BME280;9689;51.052;13.772;2023-01-09T06:09:28;98603.22;;;4.85;84.79
19114;BME280;9689;51.052;13.772;2023-01-09T06:14:29;98602.28;;;4.89;85.09
19114;BME280;9689;51.052;13.772;2023-01-09T06:19:31;98608.28;;;4.89;84.36
19114;BME280;9689;51.052;13.772;2023-01-09T06:24:32;98603.09;;;4.91;84.45
19114;BME280;9689;51.052;13.772;2023-01-09T06:29:32;98617.50;;;4.99;83.68
19114;BME280;9689;51.052;13.772;2023-01-09T06:34:34;98623.38;;;5.06;84.03
19114;BME280;9689;51.052;13.772;2023-01-09T06:39:35;98621.53;;;5.09;83.17
19114;BME280;9689;51.052;13.772;2023-01-09T06:44:36;98634.50;;;5.08;83.48
19114;BME280;9689;51.052;13.772;2023-01-09T06:49:41;98649.00;;;5.12;82.38
19114;BME280;9689;51.052;13.772;2023-01-09T06:54:42;98638.44;;;5.23;82.77
19114;BME280;9689;51.052;13.772;2023-01-09T06:59:42;98639.34;;;5.22;81.87
19114;BME280;9689;51.052;13.772;2023-01-09T07:04:44;98647.03;;;5.23;81.32
19114;BME280;9689;51.052;13.772;2023-01-09T07:09:45;98631.41;;;5.28;81.45
19114;BME280;9689;51.052;13.772;2023-01-09T07:14:46;98633.94;;;5.29;80.73
19114;BME280;9689;51.052;13.772;2023-01-09T07:19:48;98641.69;;;5.31;81.87
19114;BME280;9689;51.052;13.772;2023-01-09T07:24:48;98639.16;;;5.28;81.06
19114;BME280;9689;51.052;13.772;2023-01-09T07:29:49;98630.59;;;5.26;81.31
19114;BME280;9689;51.052;13.772;2023-01-09T07:34:53;98642.59;;;5.28;81.24
19114;BME280;9689;51.052;13.772;2023-01-09T07:39:53;98637.22;;;5.36;80.49
19114;BME280;9689;51.052;13.772;2023-01-09T07:44:54;98641.63;;;5.32;80.93
19114;BME280;9689;51.052;13.772;2023-01-09T07:49:56;98654.59;;;5.29;79.74
19114;BME280;9689;51.052;13.772;2023-01-09T07:54:57;98654.31;;;5.42;79.79
19114;BME280;9689;51.052;13.772;2023-01-09T07:59:58;98655.84;;;5.49;80.78
19114;BME280;9689;51.052;13.772;2023-01-09T08:05:11;98666.91;;;5.54;80.25
19114;BME280;9689;51.052;13.772;2023-01-09T08:10:14;98663.91;;;5.69;79.19
19114;BME280;9689;51.052;13.772;2023-01-09T08:15:18;98665.47;;;5.76;78.99
19114;BME280;9689;51.052;13.772;2023-01-09T08:20:20;98664.94;;;5.96;78.01
19114;BME280;9689;51.052;13.772;2023-01-09T08:25:20;98660.34;;;6.06;78.26
19114;BME280;9689;51.052;13.772;2023-01-09T08:30:23;98661.88;;;6.13;77.53
19114;BME280;9689;51.052;13.772;2023-01-09T08:35:25;98671.00;;;6.26;77.00
19114;BME280;9689;51.052;13.772;2023-01-09T08:40:26;98672.75;;;6.26;76.93
19114;BME280;9689;51.052;13.772;2023-01-09T08:45:27;98682.06;;;6.31;78.14
19114;BME280;9689;51.052;13.772;2023-01-09T08:50:47;98694.53;;;6.46;77.67
19114;BME280;9689;51.052;13.772;2023-01-09T08:55:48;98696.19;;;6.49;77.45
19114;BME280;9689;51.052;13.772;2023-01-09T09:00:49;98695.88;;;6.60;77.56
19114;BME280;9689;51.052;13.772;2023-01-09T09:05:51;98697.53;;;6.62;77.63
19114;BME280;9689;51.052;13.772;2023-01-09T09:10:52;98694.66;;;6.71;76.38
19114;BME280;9689;51.052;13.772;2023-01-09T09:15:53;98699.13;;;6.94;75.82
19114;BME280;9689;51.052;13.772;2023-01-09T09:20:55;98700.34;;;7.11;76.62
19114;BME280;9689;51.052;13.772;2023-01-09T09:25:55;98708.06;;;7.12;76.78
19114;BME280;9689;51.052;13.772;2023-01-09T09:30:56;98713.47;;;7.32;76.95
19114;BME280;9689;51.052;13.772;2023-01-09T09:35:59;98724.69;;;7.59;76.18
19114;BME280;9689;51.052;13.772;2023-01-09T09:41:11;98730.72;;;7.60;75.85
19114;BME280;9689;51.052;13.772;2023-01-09T09:46:40;98725.38;;;7.89;75.33
19114;BME280;9689;51.052;13.772;2023-01-09T09:51:49;98735.22;;;8.05;75.93
19114;BME280;9689;51.052;13.772;2023-01-09T09:56:55;98736.22;;;8.26;76.43
19114;BME280;9689;51.052;13.772;2023-01-09T10:01:59;98734.38;;;8.29;76.73
19114;BME280;9689;51.052;13.772;2023-01-09T10:07:04;98729.94;;;8.56;75.68
19114;BME280;9689;51.052;13.772;2023-01-09T10:12:19;98735.81;;;8.61;75.06
19114;BME280;9689;51.052;13.772;2023-01-09T10:17:33;98733.16;;;8.63;74.82
19114;BME280;9689;51.052;13.772;2023-01-09T10:22:46;98745.75;;;8.73;74.15
19114;BME280;9689;51.052;13.772;2023-01-09T10:28:01;98753.41;;;8.76;74.85
19114;BME280;9689;51.052;13.772;2023-01-09T10:33:19;98769.06;;;8.75;75.45
19114;BME280;9689;51.052;13.772;2023-01-09T10:38:27;98785.03;;;8.64;76.52
19114;BME280;9689;51.052;13.772;2023-01-09T10:43:35;98801.22;;;8.47;78.36
19114;BME280;9689;51.052;13.772;2023-01-09T10:48:41;98814.66;;;8.09;80.89
19114;BME280;9689;51.052;13.772;2023-01-09T10:53:48;98821.75;;;7.77;83.00
19114;BME280;9689;51.052;13.772;2023-01-09T10:58:50;98826.69;;;7.58;82.91
19114;BME280;9689;51.052;13.772;2023-01-09T11:03:52;98838.25;;;7.48;82.81
19114;BME280;9689;51.052;13.772;2023-01-09T11:08:55;98842.28;;;7.57;82.78
19114;BME280;9689;51.052;13.772;2023-01-09T11:14:13;98830.56;;;7.72;80.62
19114;BME280;9689;51.052;13.772;2023-01-09T11:19:14;98842.50;;;7.77;79.58
19114;BME280;9689;51.052;13.772;2023-01-09T11:24:28;98831.72;;;7.89;78.80
19114;BME280;9689;51.052;13.772;2023-01-09T11:29:32;98843.44;;;8.01;77.30
19114;BME280;9689;51.052;13.772;2023-01-09T11:34:35;98852.03;;;8.03;76.17
19114;BME280;9689;51.052;13.772;2023-01-09T11:39:43;98845.69;;;8.12;74.14
19114;BME280;9689;51.052;13.772;2023-01-09T11:44:46;98842.91;;;8.16;72.47
19114;BME280;9689;51.052;13.772;2023-01-09T11:49:47;98841.03;;;8.21;71.78
19114;BME280;9689;51.052;13.772;2023-01-09T11:54:54;98836.38;;;8.31;70.08
19114;BME280;9689;51.052;13.772;2023-01-09T12:00:00;98844.16;;;8.31;70.27
19114;BME280;9689;51.052;13.772;2023-01-09T12:05:17;98835.34;;;8.37;68.86
19114;BME280;9689;51.052;13.772;2023-01-09T12:10:36;98828.41;;;8.37;68.24
19114;BME280;9689;51.052;13.772;2023-01-09T12:15:49;98831.59;;;8.45;67.85
19114;BME280;9689;51.052;13.772;2023-01-09T12:21:10;98844.44;;;8.48;67.73
19114;BME280;9689;51.052;13.772;2023-01-09T12:26:20;98854.84;;;8.48;67.52
19114;BME280;9689;51.052;13.772;2023-01-09T12:31:31;98849.44;;;8.55;67.69
19114;BME280;9689;51.052;13.772;2023-01-09T12:36:43;98865.75;;;8.58;67.39
19114;BME280;9689;51.052;13.772;2023-01-09T12:42:08;98867.66;;;8.53;67.78
19114;BME280;9689;51.052;13.772;2023-01-09T12:47:37;98881.16;;;8.38;68.92
19114;BME280;9689;51.052;13.772;2023-01-09T12:52:47;98871.75;;;8.34;68.62
19114;BME280;9689;51.052;13.772;2023-01-09T12:57:57;98874.41;;;8.32;68.82
19114;BME280;9689;51.052;13.772;2023-01-09T13:03:04;98889.28;;;8.27;68.96
19114;BME280;9689;51.052;13.772;2023-01-09T13:08:14;98896.91;;;8.32;68.88
19114;BME280;9689;51.052;13.772;2023-01-09T13:13:23;98900.78;;;8.46;67.37
19114;BME280;9689;51.052;13.772;2023-01-09T13:18:29;98890.00;;;8.57;67.29
19114;BME280;9689;51.052;13.772;2023-01-09T13:23:40;98892.66;;;8.56;67.08
19114;BME280;9689;51.052;13.772;2023-01-09T13:28:46;98894.84;;;8.43;67.41
19114;BME280;9689;51.052;13.772;2023-01-09T13:33:51;98897.28;;;8.47;67.34
19114;BME280;9689;51.052;13.772;2023-01-09T13:38:54;98900.59;;;8.51;66.95
19114;BME280;9689;51.052;13.772;2023-01-09T13:43:59;98910.31;;;8.46;67.20
19114;BME280;9689;51.052;13.772;2023-01-09T13:49:00;98915.56;;;8.44;67.15
19114;BME280;9689;51.052;13.772;2023-01-09T13:54:02;98923.88;;;8.54;66.79
19114;BME280;9689;51.052;13.772;2023-01-09T13:59:25;98945.88;;;8.44;67.05
19114;BME280;9689;51.052;13.772;2023-01-09T14:04:41;98966.72;;;8.41;67.44
19114;BME280;9689;51.052;13.772;2023-01-09T14:09:46;98960.63;;;8.42;67.31
19114;BME280;9689;51.052;13.772;2023-01-09T14:14:50;98967.44;;;8.46;67.08
19114;BME280;9689;51.052;13.772;2023-01-09T14:19:54;98968.28;;;8.46;67.16
19114;BME280;9689;51.052;13.772;2023-01-09T14:25:01;98966.63;;;8.44;67.07
19114;BME280;9689;51.052;13.772;2023-01-09T14:30:28;98969.00;;;8.50;67.44
19114;BME280;9689;51.052;13.772;2023-01-09T14:35:42;98978.72;;;8.45;67.56
19114;BME280;9689;51.052;13.772;2023-01-09T14:40:46;98989.94;;;8.45;67.53
19114;BME280;9689;51.052;13.772;2023-01-09T14:45:52;98987.75;;;8.32;68.25
19114;BME280;9689;51.052;13.772;2023-01-09T14:50:57;99005.06;;;8.31;67.23
19114;BME280;9689;51.052;13.772;2023-01-09T14:55:59;99002.81;;;8.20;67.97
19114;BME280;9689;51.052;13.772;2023-01-09T15:01:11;99007.72;;;8.30;66.93
19114;BME280;9689;51.052;13.772;2023-01-09T15:06:17;99016.34;;;8.30;67.94
19114;BME280;9689;51.052;13.772;2023-01-09T15:11:19;99013.25;;;8.19;67.30
19114;BME280;9689;51.052;13.772;2023-01-09T15:16:23;99022.28;;;8.06;68.18
19114;BME280;9689;51.052;13.772;2023-01-09T15:21:26;99034.47;;;8.04;68.59
19114;BME280;9689;51.052;13.772;2023-01-09T15:26:29;99034.19;;;8.13;68.73
19114;BME280;9689;51.052;13.772;2023-01-09T15:31:31;99028.38;;;8.05;69.57
19114;BME280;9689;51.052;13.772;2023-01-09T15:36:36;99035.75;;;7.89;69.65
19114;BME280;9689;51.052;13.772;2023-01-09T15:41:38;99027.22;;;7.85;69.82
19114;BME280;9689;51.052;13.772;2023-01-09T15:46:59;99025.50;;;7.86;69.07
19114;BME280;9689;51.052;13.772;2023-01-09T15:52:00;99034.44;;;7.76;69.22
19114;BME280;9689;51.052;13.772;2023-01-09T15:57:25;99055.22;;;7.74;69.44
19114;BME280;9689;51.052;13.772;2023-01-09T16:02:30;99049.78;;;7.83;68.36
19114;BME280;9689;51.052;13.772;2023-01-09T16:07:49;99063.03;;;7.73;68.95
19114;BME280;9689;51.052;13.772;2023-01-09T16:12:50;99065.59;;;7.43;70.94
19114;BME280;9689;51.052;13.772;2023-01-09T16:18:18;99071.50;;;7.79;72.55
19114;BME280;9689;51.052;13.772;2023-01-09T16:23:21;99067.13;;;7.50;70.51
19114;BME280;9689;51.052;13.772;2023-01-09T16:28:23;99068.44;;;7.34;70.42
19114;BME280;9689;51.052;13.772;2023-01-09T16:33:30;99085.53;;;7.07;71.66
19114;BME280;9689;51.052;13.772;2023-01-09T16:38:31;99081.88;;;6.82;73.41
19114;BME280;9689;51.052;13.772;2023-01-09T16:43:33;99093.66;;;6.58;73.78
19114;BME280;9689;51.052;13.772;2023-01-09T16:48:35;99087.44;;;6.65;73.46
19114;BME280;9689;51.052;13.772;2023-01-09T16:53:37;99096.28;;;6.92;71.72
19114;BME280;9689;51.052;13.772;2023-01-09T16:58:38;99096.19;;;6.95;71.58
19114;BME280;9689;51.052;13.772;2023-01-09T17:03:40;99106.91;;;6.81;72.25
19114;BME280;9689;51.052;13.772;2023-01-09T17:08:42;99115.84;;;6.68;72.69
19114;BME280;9689;51.052;13.772;2023-01-09T17:13:43;99127.28;;;6.58;73.37
19114;BME280;9689;51.052;13.772;2023-01-09T17:18:46;99130.91;;;6.50;73.90
19114;BME280;9689;51.052;13.772;2023-01-09T17:23:47;99139.34;;;6.59;73.48
19114;BME280;9689;51.052;13.772;2023-01-09T17:29:09;99139.25;;;6.63;72.69
19114;BME280;9689;51.052;13.772;2023-01-09T17:34:11;99145.81;;;6.78;72.91
19114;BME280;9689;51.052;13.772;2023-01-09T17:39:12;99149.91;;;6.49;72.94
19114;BME280;9689;51.052;13.772;2023-01-09T17:44:13;99150.19;;;6.37;74.56
19114;BME280;9689;51.052;13.772;2023-01-09T17:49:18;99164.72;;;6.43;73.97
19114;BME280;9689;51.052;13.772;2023-01-09T17:54:19;99170.06;;;6.35;74.03
19114;BME280;9689;51.052;13.772;2023-01-09T17:59:19;99174.50;;;6.29;74.92
19114;BME280;9689;51.052;13.772;2023-01-09T18:04:22;99194.47;;;6.22;75.02
19114;BME280;9689;51.052;13.772;2023-01-09T18:09:22;99195.44;;;6.18;75.39
19114;BME280;9689;51.052;13.772;2023-01-09T18:14:23;99197.13;;;6.19;75.79
19114;BME280;9689;51.052;13.772;2023-01-09T18:19:25;99194.56;;;6.19;75.63
19114;BME280;9689;51.052;13.772;2023-01-09T18:24:26;99196.13;;;6.26;75.59
19114;BME280;9689;51.052;13.772;2023-01-09T18:29:26;99198.47;;;6.38;74.56
19114;BME280;9689;51.052;13.772;2023-01-09T18:34:28;99209.53;;;6.45;73.94
19114;BME280;9689;51.052;13.772;2023-01-09T18:39:29;99192.16;;;6.51;74.09
19114;BME280;9689;51.052;13.772;2023-01-09T18:44:30;99191.97;;;6.61;74.13
19114;BME280;9689;51.052;13.772;2023-01-09T18:49:32;99190.31;;;6.57;74.09
19114;BME280;9689;51.052;13.772;2023-01-09T18:54:33;99192.16;;;6.51;72.52
19114;BME280;9689;51.052;13.772;2023-01-09T18:59:33;99195.50;;;6.55;73.40
19114;BME280;9689;51.052;13.772;2023-01-09T19:04:36;99193.66;;;6.60;72.33
19114;BME280;9689;51.052;13.772;2023-01-09T19:09:36;99205.88;;;6.55;71.32
19114;BME280;9689;51.052;13.772;2023-01-09T19:14:37;99218.41;;;6.73;71.23
19114;BME280;9689;51.052;13.772;2023-01-09T19:19:39;99221.19;;;6.64;71.77
19114;BME280;9689;51.052;13.772;2023-01-09T19:24:40;99238.47;;;6.64;71.92
19114;BME280;9689;51.052;13.772;2023-01-09T19:29:41;99244.19;;;6.79;72.13
19114;BME280;9689;51.052;13.772;2023-01-09T19:34:43;99257.03;;;6.83;71.98
19114;BME280;9689;51.052;13.772;2023-01-09T19:39:44;99246.44;;;6.93;71.27
19114;BME280;9689;51.052;13.772;2023-01-09T19:44:45;99252.72;;;6.83;72.32
19114;BME280;9689;51.052;13.772;2023-01-09T19:49:47;99261.34;;;6.84;71.62
19114;BME280;9689;51.052;13.772;2023-01-09T19:54:48;99279.69;;;6.73;72.04
19114;BME280;9689;51.052;13.772;2023-01-09T19:59:49;99294.22;;;6.80;71.74
19114;BME280;9689;51.052;13.772;2023-01-09T20:04:51;99309.75;;;6.80;72.01
19114;BME280;9689;51.052;13.772;2023-01-09T20:09:52;99317.41;;;6.85;71.92
19114;BME280;9689;51.052;13.772;2023-01-09T20:14:53;99330.47;;;6.80;71.31
19114;BME280;9689;51.052;13.772;2023-01-09T20:19:55;99333.75;;;6.88;71.51
19114;BME280;9689;51.052;13.772;2023-01-09T20:24:55;99341.56;;;6.85;71.59
19114;BME280;9689;51.052;13.772;2023-01-09T20:29:57;99345.16;;;6.79;72.02
19114;BME280;9689;51.052;13.772;2023-01-09T20:35:01;99346.06;;;6.78;71.74
19114;BME280;9689;51.052;13.772;2023-01-09T20:40:03;99366.06;;;6.70;72.26
19114;BME280;9689;51.052;13.772;2023-01-09T20:45:04;99368.69;;;6.67;72.61
19114;BME280;9689;51.052;13.772;2023-01-09T20:50:08;99380.75;;;6.68;72.56
19114;BME280;9689;51.052;13.772;2023-01-09T20:55:09;99381.41;;;6.79;73.15
19114;BME280;9689;51.052;13.772;2023-01-09T21:00:11;99379.88;;;6.69;72.49
19114;BME280;9689;51.052;13.772;2023-01-09T21:05:13;99377.19;;;6.74;72.29
19114;BME280;9689;51.052;13.772;2023-01-09T21:10:15;99379.84;;;6.71;72.58
19114;BME280;9689;51.052;13.772;2023-01-09T21:15:15;99395.44;;;6.68;72.96
19114;BME280;9689;51.052;13.772;2023-01-09T21:20:19;99393.63;;;6.73;72.85
19114;BME280;9689;51.052;13.772;2023-01-09T21:25:20;99403.91;;;6.76;71.98
19114;BME280;9689;51.052;13.772;2023-01-09T21:30:21;99393.50;;;6.79;71.61
19114;BME280;9689;51.052;13.772;2023-01-09T21:35:24;99409.63;;;6.93;70.87
19114;BME280;9689;51.052;13.772;2023-01-09T21:40:25;99428.59;;;6.95;71.66
19114;BME280;9689;51.052;13.772;2023-01-09T21:45:26;99445.13;;;6.88;72.35
19114;BME280;9689;51.052;13.772;2023-01-09T21:50:46;99450.31;;;6.88;71.21
19114;BME280;9689;51.052;13.772;2023-01-09T21:55:46;99460.59;;;6.91;71.10
19114;BME280;9689;51.052;13.772;2023-01-09T22:00:48;99446.72;;;6.95;71.09
19114;BME280;9689;51.052;13.772;2023-01-09T22:05:50;99444.66;;;7.11;69.81
19114;BME280;9689;51.052;13.772;2023-01-09T22:10:54;99440.19;;;7.19;69.01
19114;BME280;9689;51.052;13.772;2023-01-09T22:16:01;99434.06;;;7.23;68.82
19114;BME280;9689;51.052;13.772;2023-01-09T22:21:04;99444.53;;;7.17;69.31
19114;BME280;9689;51.052;13.772;2023-01-09T22:26:08;99448.28;;;7.04;69.47
19114;BME280;9689;51.052;13.772;2023-01-09T22:31:09;99435.47;;;6.95;70.57
19114;BME280;9689;51.052;13.772;2023-01-09T22:36:11;99454.81;;;6.77;70.77
19114;BME280;9689;51.052;13.772;2023-01-09T22:41:12;99477.38;;;6.70;71.16
19114;BME280;9689;51.052;13.772;2023-01-09T22:46:13;99482.31;;;6.84;70.64
19114;BME280;9689;51.052;13.772;2023-01-09T22:51:18;99492.72;;;6.81;70.84
19114;BME280;9689;51.052;13.772;2023-01-09T22:56:21;99478.97;;;6.79;70.94
19114;BME280;9689;51.052;13.772;2023-01-09T23:01:21;99490.16;;;6.79;70.75
19114;BME280;9689;51.052;13.772;2023-01-09T23:06:23;99491.94;;;6.76;70.98
19114;BME280;9689;51.052;13.772;2023-01-09T23:11:28;99507.69;;;6.64;71.74
19114;BME280;9689;51.052;13.772;2023-01-09T23:16:47;99520.75;;;6.56;72.38
19114;BME280;9689;51.052;13.772;2023-01-09T23:21:49;99536.22;;;6.59;71.81
19114;BME280;9689;51.052;13.772;2023-01-09T23:26:50;99536.22;;;6.61;71.75
19114;BME280;9689;51.052;13.772;2023-01-09T23:31:51;99543.97;;;6.62;72.18
19114;BME280;9689;51.052;13.772;2023-01-09T23:36:54;99546.59;;;6.61;71.98
19114;BME280;9689;51.052;13.772;2023-01-09T23:41:55;99560.28;;;6.66;71.91
19114;BME280;9689;51.052;13.772;2023-01-09T23:47:14;99562.00;;;6.67;71.98
19114;BME280;9689;51.052;13.772;2023-01-09T23:52:16;99572.31;;;6.70;71.41
19114;BME280;9689;51.052;13.772;2023-01-09T23:57:18;99581.84;;;6.69;71.38
